Terminal Aerodrome Forecast
Issued by NWS

Home | Current Version | Previous Version | Graphics & Text | Print | Product List | Glossary On
Versions: 1 2 3 4 5 6 7 8 9 10 11 12 13 14 15 16 17 18 19 20 21
000
FTUS43 KMPX 220900 AAA
TAFRWF
TAF AMD
KRWF 220939Z 2210/2306 30012KT P6SM VCSH SCT026 BKN090
      TEMPO 2210/2212 4SM TSRA BKN026CB
     FM221200 31012KT P6SM SCT030 BKN120
     FM221400 33013G19KT P6SM SCT250
     FM230000 34007KT P6SM FEW250=

USA.gov is the U.S. government's official web portal to all federal, state and local government web resources and services.